Atlantis — PCDT — position and weather

sailwx.info

Track history (hours):
 
Tides and Currents Weather Stations Pressure Air Temp Water Temp Dewpoint Dewpoint Depression Visibility Wind Speed Wind Dir Waves Ship Positions

Atlantis (Netherlands)

Ship's website: http://www.tallship-company.com/artemis/gb_atlantis.htm

Last reported at 2015-Apr-28 17:34 UTC. Time now 2015-Apr-28 18:17 UTC.
Position N 52°03' E 001°10'.

Length 40 m; draft 4.8 m.

Type: Sailing vessel. MMSI: 246253000.

Date/timePositionNaut miles runAvg speedWind from/ knotsBaromVisibWave heightAir tempDewpointWater temp
2015-Apr-28 17:34N 52°03' E 001°10'0 0.2
2015-Apr-28 16:04N 52°03' E 001°10'0 0.0
2015-Apr-28 15:25N 52°03' E 001°10'0 0.0
2015-Apr-28 14:31N 52°03' E 001°10'0 0.0
2015-Apr-28 13:25N 52°03' E 001°10'0 0.0
2015-Apr-28 12:28N 52°03' E 001°10'0 0.0
2015-Apr-28 11:13N 52°03' E 001°10'0 0.0
2015-Apr-28 10:28N 52°03' E 001°10'0 0.0
2015-Apr-28 09:25N 52°03' E 001°10'0 0.0
2015-Apr-28 08:10N 52°03' E 001°10'0 0.0
2015-Apr-28 07:31N 52°03' E 001°10'0 0.0
2015-Apr-28 06:31N 52°03' E 001°10'0 0.0
2015-Apr-28 05:25N 52°03' E 001°10'0 0.0
2015-Apr-28 04:22N 52°03' E 001°10'0 0.0
2015-Apr-28 03:25N 52°03' E 001°10'0 0.0
2015-Apr-28 02:13N 52°03' E 001°10'0 0.0
2015-Apr-28 01:31N 52°03' E 001°10'0 0.0
2015-Apr-28 00:28N 52°03' E 001°10'0 0.0
2015-Apr-27 23:31N 52°03' E 001°10'0 0.0
2015-Apr-27 22:19N 52°03' E 001°10'0 0.0
2015-Apr-27 21:16N 52°03' E 001°10'0 0.0
2015-Apr-27 19:31N 52°03' E 001°10'0 0.0
2015-Apr-27 18:28N 52°03' E 001°10'0 0.0
2015-Apr-27 17:25N 52°03' E 001°10'0 0.3
2015-Apr-27 16:33N 52°03' E 001°10'4 3.7
2015-Apr-27 15:33N 51°60' E 001°14'3 3.2
2015-Apr-27 14:33N 51°58' E 001°17'3 3.3
2015-Apr-27 13:33N 51°56' E 001°21'4 4.1
2015-Apr-27 12:33N 51°57' E 001°28'5 5.1
2015-Apr-27 11:33N 51°60' E 001°35'5 5.0
2015-Apr-27 10:33N 52°03' E 001°40'4 4.3
2015-Apr-27 09:33N 52°06' E 001°45'4 3.6
2015-Apr-27 08:33N 52°08' E 001°50'4 4.3
2015-Apr-27 07:33N 52°11' E 001°56'28 6.4
2015-Apr-27 03:15N 52°24' E 002°35'101 5.1
2015-Apr-26 07:33N 53°19' E 004°56'7 7.1
2015-Apr-26 06:33N 53°20' E 005°07'6 6.3
2015-Apr-26 05:33N 53°14' E 005°12'7 7.4
2015-Apr-26 04:33N 53°11' E 005°23'1 0.9
2015-Apr-26 03:33N 53°10' E 005°25'0 0.0
2015-Apr-26 02:33N 53°10' E 005°25'0 0.0
2015-Apr-26 01:33N 53°10' E 005°25'0 0.0
2015-Apr-26 00:33N 53°10' E 005°25'0 0.0
2015-Apr-25 23:33N 53°10' E 005°25'0 0.0
2015-Apr-25 22:33N 53°10' E 005°25'0 0.0
2015-Apr-25 21:33N 53°10' E 005°25'0 0.0
2015-Apr-25 20:33N 53°10' E 005°25'0 0.0
2015-Apr-25 19:33N 53°10' E 005°25'0 0.0
2015-Apr-25 18:33N 53°10' E 005°25'0 0.0
2015-Apr-25 17:33N 53°10' E 005°25'0 0.0
2015-Apr-25 16:33N 53°10' E 005°25'0 0.0
2015-Apr-25 15:33N 53°10' E 005°25'0 0.0
2015-Apr-25 14:33N 53°10' E 005°25'0 0.0
2015-Apr-25 13:33N 53°10' E 005°25'0 0.0
2015-Apr-25 12:33N 53°10' E 005°25'0 0.0
2015-Apr-25 11:33N 53°10' E 005°25'0 0.0
2015-Apr-25 10:33N 53°10' E 005°25'0 0.0
2015-Apr-25 09:33N 53°10' E 005°25'0 0.0
2015-Apr-25 08:33N 53°10' E 005°25'0 0.0
2015-Apr-25 07:33N 53°10' E 005°25'0 0.0
2015-Apr-25 06:33N 53°10' E 005°25'0 0.0
2015-Apr-25 05:33N 53°10' E 005°25'0 0.0
2015-Apr-25 04:33N 53°10' E 005°25'0 0.0
2015-Apr-25 03:33N 53°10' E 005°25'0 0.0
2015-Apr-25 02:33N 53°10' E 005°25'0 0.0
2015-Apr-25 01:33N 53°10' E 005°25'0 0.0
2015-Apr-25 00:33N 53°10' E 005°25'0 0.0
2015-Apr-24 23:33N 53°10' E 005°25'0 0.0
2015-Apr-24 22:33N 53°10' E 005°25'0 0.0
2015-Apr-24 21:33N 53°10' E 005°25'0 0.0
2015-Apr-24 20:33N 53°10' E 005°25'0 0.0
2015-Apr-24 19:33N 53°10' E 005°25'0 0.0
2015-Apr-24 18:33N 53°10' E 005°25'0 0.0
2015-Apr-24 17:33N 53°10' E 005°25'0 0.0
2015-Apr-24 16:33N 53°10' E 005°25'0 0.0
2015-Apr-24 15:33N 53°10' E 005°25'0 0.0
2015-Apr-24 14:33N 53°10' E 005°25'0 0.0
2015-Apr-24 13:33N 53°10' E 005°25'0 0.0
2015-Apr-24 12:33N 53°10' E 005°25'0 0.0
2015-Apr-24 11:33N 53°10' E 005°25'0 0.0
2015-Apr-24 10:33N 53°10' E 005°25'0 0.0
2015-Apr-24 09:33N 53°10' E 005°25'0 0.0
2015-Apr-24 08:33N 53°10' E 005°25'0 0.0
2015-Apr-24 07:33N 53°10' E 005°25'0 0.0
2015-Apr-24 06:33N 53°10' E 005°25'0 0.0
2015-Apr-24 05:33N 53°10' E 005°25'0 0.0
2015-Apr-24 04:33N 53°10' E 005°25'0 0.0
2015-Apr-24 03:33N 53°10' E 005°25'0 0.0
2015-Apr-24 02:33N 53°10' E 005°25'0 0.0
2015-Apr-24 01:33N 53°10' E 005°25'0 0.0
2015-Apr-24 00:33N 53°10' E 005°25'0 0.0
2015-Apr-23 23:33N 53°10' E 005°25'0 0.0
2015-Apr-23 22:33N 53°10' E 005°25'0 0.0
2015-Apr-23 21:33N 53°10' E 005°25'0 0.0
2015-Apr-23 20:33N 53°10' E 005°25'0 0.0
2015-Apr-23 19:33N 53°10' E 005°25'0 0.0
2015-Apr-23 18:33N 53°10' E 005°25'0 0.0
2015-Apr-23 17:33N 53°10' E 005°25'0 0.0
2015-Apr-23 16:33N 53°10' E 005°25'0 0.0
2015-Apr-23 15:33N 53°10' E 005°25'0 0.0
2015-Apr-23 14:33N 53°10' E 005°25'0 0.0
2015-Apr-23 13:33N 53°10' E 005°25'0 0.0
2015-Apr-23 12:33N 53°10' E 005°25'0 0.0
2015-Apr-23 11:33N 53°10' E 005°25'0 0.0
2015-Apr-23 10:33N 53°10' E 005°25'0 0.0
2015-Apr-23 09:33N 53°10' E 005°25'0 0.0
2015-Apr-23 08:33N 53°10' E 005°25'0 0.0
2015-Apr-23 07:33N 53°10' E 005°25'0 0.0
2015-Apr-23 06:33N 53°10' E 005°25'0 0.0
2015-Apr-23 05:33N 53°10' E 005°25'0 0.0
2015-Apr-23 04:33N 53°10' E 005°25'0 0.0
2015-Apr-23 03:33N 53°10' E 005°25'0 0.0
2015-Apr-23 02:33N 53°10' E 005°25'0 0.0
2015-Apr-23 01:33N 53°10' E 005°25'0 0.0
2015-Apr-23 00:33N 53°10' E 005°25'0 0.0
2015-Apr-22 23:33N 53°10' E 005°25'0 0.0
2015-Apr-22 22:33N 53°10' E 005°25'0 0.0
2015-Apr-22 21:33N 53°10' E 005°25'0 0.0
2015-Apr-22 20:33N 53°10' E 005°25'0 0.0
2015-Apr-22 19:33N 53°10' E 005°25'0 0.0
2015-Apr-22 18:33N 53°10' E 005°25'0 0.0
2015-Apr-22 17:33N 53°10' E 005°25'0 0.0
2015-Apr-22 16:33N 53°10' E 005°25'0 0.0
2015-Apr-22 15:33N 53°10' E 005°25'0 0.0
2015-Apr-22 14:33N 53°10' E 005°25'0 0.0
2015-Apr-22 13:33N 53°10' E 005°25'0 0.0
2015-Apr-22 12:33N 53°10' E 005°25'0 0.0
2015-Apr-22 11:33N 53°10' E 005°25'0 0.0
2015-Apr-22 10:33N 53°10' E 005°25'0 0.0
2015-Apr-22 09:33N 53°10' E 005°25'0 0.0
2015-Apr-22 08:33N 53°10' E 005°25'0 0.0
2015-Apr-22 07:33N 53°10' E 005°25'0 0.0
2015-Apr-22 06:33N 53°10' E 005°25'0 0.0
2015-Apr-22 05:33N 53°10' E 005°25'0 0.0
2015-Apr-22 04:33N 53°10' E 005°25'0 0.0
2015-Apr-22 03:33N 53°10' E 005°25'0 0.0
2015-Apr-22 02:32N 53°10' E 005°25'0 0.0
2015-Apr-22 01:32N 53°10' E 005°25'0 0.0
2015-Apr-22 00:33N 53°10' E 005°25'0 0.0
2015-Apr-21 23:33N 53°10' E 005°25'0 0.0
2015-Apr-21 22:33N 53°10' E 005°25'0 0.0
2015-Apr-21 21:33N 53°10' E 005°25'0 0.0
2015-Apr-21 20:33N 53°10' E 005°25'0 0.0
2015-Apr-21 19:33N 53°10' E 005°25'0 0.0
2015-Apr-21 18:33N 53°10' E 005°25'0 0.0
2015-Apr-21 17:33N 53°10' E 005°25'0 0.0
2015-Apr-21 16:33N 53°10' E 005°25'0 0.0
2015-Apr-21 15:33N 53°10' E 005°25'0 0.0
2015-Apr-21 14:33N 53°10' E 005°25'0 0.0
2015-Apr-21 13:33N 53°10' E 005°25'0 0.0
2015-Apr-21 12:33N 53°10' E 005°25'0 0.0
2015-Apr-21 11:33N 53°10' E 005°25'0 0.0
2015-Apr-21 10:33N 53°10' E 005°25'0 0.0
2015-Apr-21 09:33N 53°10' E 005°25'0 0.0
2015-Apr-21 08:33N 53°10' E 005°25'0 0.0
2015-Apr-21 07:33N 53°10' E 005°25'0 0.0
2015-Apr-21 06:33N 53°10' E 005°25'0 0.0
2015-Apr-21 05:33N 53°10' E 005°25'0 0.0
2015-Apr-21 04:33N 53°10' E 005°25'0 0.0
2015-Apr-21 03:33N 53°10' E 005°25'0 0.0
2015-Apr-21 02:33N 53°10' E 005°25'0 0.0
2015-Apr-21 01:33N 53°10' E 005°25'0 0.0
2015-Apr-21 00:33N 53°10' E 005°25'0 0.0
2015-Apr-20 23:33N 53°10' E 005°25'0 0.0
2015-Apr-20 22:33N 53°10' E 005°25'0 0.0
2015-Apr-20 21:33N 53°10' E 005°25'0 0.0
2015-Apr-20 20:33N 53°10' E 005°25'0 0.0
2015-Apr-20 19:33N 53°10' E 005°25'0 0.0
2015-Apr-20 18:33N 53°10' E 005°25'0 0.0
2015-Apr-20 17:33N 53°10' E 005°25'0 0.0
2015-Apr-20 16:33N 53°10' E 005°25'0 0.0
2015-Apr-20 15:33N 53°10' E 005°25'0 0.0
2015-Apr-20 14:33N 53°10' E 005°25'0 0.0
2015-Apr-20 13:33N 53°10' E 005°25'0 0.0
2015-Apr-20 12:33N 53°10' E 005°25'0 0.0
2015-Apr-20 11:33N 53°10' E 005°25'0 0.0
2015-Apr-20 10:33N 53°10' E 005°25'0 0.0
2015-Apr-20 09:33N 53°10' E 005°25'0 0.0
2015-Apr-20 08:33N 53°10' E 005°25'0 0.0
2015-Apr-20 07:33N 53°10' E 005°25'0 0.0
2015-Apr-20 06:33N 53°10' E 005°25'0 0.0
2015-Apr-20 05:33N 53°10' E 005°25'0 0.0
2015-Apr-20 04:33N 53°10' E 005°25'0 0.0
2015-Apr-20 03:33N 53°10' E 005°25'0 0.0
2015-Apr-20 02:33N 53°10' E 005°25'0 0.0
2015-Apr-20 01:33N 53°10' E 005°25'0 0.0
2015-Apr-20 00:33N 53°10' E 005°25'0 0.0
2015-Apr-19 23:33N 53°10' E 005°25'0 0.0
2015-Apr-19 22:33N 53°10' E 005°25'0 0.0
2015-Apr-19 21:33N 53°10' E 005°25'0 0.0
2015-Apr-19 20:33N 53°10' E 005°25'0 0.0
2015-Apr-19 19:33N 53°10' E 005°25'0 0.0
2015-Apr-19 18:33N 53°10' E 005°25'0 0.0
2015-Apr-19 17:33N 53°10' E 005°25'0 0.0
2015-Apr-19 16:33N 53°10' E 005°25'0 0.0
2015-Apr-19 15:33N 53°10' E 005°25'0 0.0
2015-Apr-19 14:33N 53°10' E 005°25'0 0.0
2015-Apr-19 13:33N 53°10' E 005°25'0 0.0
2015-Apr-19 12:33N 53°10' E 005°25'0 0.0
2015-Apr-19 11:33N 53°10' E 005°25'0 0.0
2015-Apr-19 10:33N 53°10' E 005°25'0 0.0
2015-Apr-19 09:33N 53°10' E 005°25'0 0.0
2015-Apr-19 08:33N 53°10' E 005°25'0 0.0
2015-Apr-19 07:33N 53°10' E 005°25'0 0.0
2015-Apr-19 06:33N 53°10' E 005°25'0 0.0
2015-Apr-19 05:33N 53°10' E 005°25'0 0.0
2015-Apr-19 04:33N 53°10' E 005°25'0 0.0
2015-Apr-19 03:33N 53°10' E 005°25'0 0.0
2015-Apr-19 02:33N 53°10' E 005°25'0 0.0
2015-Apr-19 01:33N 53°10' E 005°25'0 0.0
2015-Apr-19 00:33N 53°10' E 005°25'0 0.0
2015-Apr-18 23:33N 53°10' E 005°25'0 0.0
2015-Apr-18 22:33N 53°10' E 005°25'0 0.0
2015-Apr-18 21:33N 53°10' E 005°25'0 0.0
2015-Apr-18 20:33N 53°10' E 005°25'0 0.0
2015-Apr-18 19:33N 53°10' E 005°25'0 0.0
2015-Apr-18 18:33N 53°10' E 005°25'  
Track history (hours):
 
Tides and Currents Weather Stations Pressure Air Temp Water Temp Dewpoint Dewpoint Depression Visibility Wind Speed Wind Dir Waves Ship Positions

Atlantis (Netherlands)

Ship's website: http://www.tallship-company.com/artemis/gb_atlantis.htm

Last reported at 2015-Apr-28 17:34 UTC. Time now 2015-Apr-28 18:17 UTC.
Position N 52°03' E 001°10'.

Length 40 m; draft 4.8 m.

Type: Sailing vessel. MMSI: 246253000.

Date/timePositionNaut miles runAvg speedWind from/ knotsBaromVisibWave heightAir tempDewpointWater temp
2015-Apr-28 17:34N 52°03' E 001°10'0 0.2
2015-Apr-28 16:04N 52°03' E 001°10'0 0.0
2015-Apr-28 15:25N 52°03' E 001°10'0 0.0
2015-Apr-28 14:31N 52°03' E 001°10'0 0.0
2015-Apr-28 13:25N 52°03' E 001°10'0 0.0
2015-Apr-28 12:28N 52°03' E 001°10'0 0.0
2015-Apr-28 11:13N 52°03' E 001°10'0 0.0
2015-Apr-28 10:28N 52°03' E 001°10'0 0.0
2015-Apr-28 09:25N 52°03' E 001°10'0 0.0
2015-Apr-28 08:10N 52°03' E 001°10'0 0.0
2015-Apr-28 07:31N 52°03' E 001°10'0 0.0
2015-Apr-28 06:31N 52°03' E 001°10'0 0.0
2015-Apr-28 05:25N 52°03' E 001°10'0 0.0
2015-Apr-28 04:22N 52°03' E 001°10'0 0.0
2015-Apr-28 03:25N 52°03' E 001°10'0 0.0
2015-Apr-28 02:13N 52°03' E 001°10'0 0.0
2015-Apr-28 01:31N 52°03' E 001°10'0 0.0
2015-Apr-28 00:28N 52°03' E 001°10'0 0.0
2015-Apr-27 23:31N 52°03' E 001°10'0 0.0
2015-Apr-27 22:19N 52°03' E 001°10'0 0.0
2015-Apr-27 21:16N 52°03' E 001°10'0 0.0
2015-Apr-27 19:31N 52°03' E 001°10'0 0.0
2015-Apr-27 18:28N 52°03' E 001°10'0 0.0
2015-Apr-27 17:25N 52°03' E 001°10'0 0.3
2015-Apr-27 16:33N 52°03' E 001°10'4 3.7
2015-Apr-27 15:33N 51°60' E 001°14'3 3.2
2015-Apr-27 14:33N 51°58' E 001°17'3 3.3
2015-Apr-27 13:33N 51°56' E 001°21'4 4.1
2015-Apr-27 12:33N 51°57' E 001°28'5 5.1
2015-Apr-27 11:33N 51°60' E 001°35'5 5.0
2015-Apr-27 10:33N 52°03' E 001°40'4 4.3
2015-Apr-27 09:33N 52°06' E 001°45'4 3.6
2015-Apr-27 08:33N 52°08' E 001°50'4 4.3
2015-Apr-27 07:33N 52°11' E 001°56'28 6.4
2015-Apr-27 03:15N 52°24' E 002°35'101 5.1
2015-Apr-26 07:33N 53°19' E 004°56'7 7.1
2015-Apr-26 06:33N 53°20' E 005°07'6 6.3
2015-Apr-26 05:33N 53°14' E 005°12'7 7.4
2015-Apr-26 04:33N 53°11' E 005°23'1 0.9
2015-Apr-26 03:33N 53°10' E 005°25'0 0.0
2015-Apr-26 02:33N 53°10' E 005°25'0 0.0
2015-Apr-26 01:33N 53°10' E 005°25'0 0.0
2015-Apr-26 00:33N 53°10' E 005°25'0 0.0
2015-Apr-25 23:33N 53°10' E 005°25'0 0.0
2015-Apr-25 22:33N 53°10' E 005°25'0 0.0
2015-Apr-25 21:33N 53°10' E 005°25'0 0.0
2015-Apr-25 20:33N 53°10' E 005°25'0 0.0
2015-Apr-25 19:33N 53°10' E 005°25'0 0.0
2015-Apr-25 18:33N 53°10' E 005°25'0 0.0
2015-Apr-25 17:33N 53°10' E 005°25'0 0.0
2015-Apr-25 16:33N 53°10' E 005°25'0 0.0
2015-Apr-25 15:33N 53°10' E 005°25'0 0.0
2015-Apr-25 14:33N 53°10' E 005°25'0 0.0
2015-Apr-25 13:33N 53°10' E 005°25'0 0.0
2015-Apr-25 12:33N 53°10' E 005°25'0 0.0
2015-Apr-25 11:33N 53°10' E 005°25'0 0.0
2015-Apr-25 10:33N 53°10' E 005°25'0 0.0
2015-Apr-25 09:33N 53°10' E 005°25'0 0.0
2015-Apr-25 08:33N 53°10' E 005°25'0 0.0
2015-Apr-25 07:33N 53°10' E 005°25'0 0.0
2015-Apr-25 06:33N 53°10' E 005°25'0 0.0
2015-Apr-25 05:33N 53°10' E 005°25'0 0.0
2015-Apr-25 04:33N 53°10' E 005°25'0 0.0
2015-Apr-25 03:33N 53°10' E 005°25'0 0.0
2015-Apr-25 02:33N 53°10' E 005°25'0 0.0
2015-Apr-25 01:33N 53°10' E 005°25'0 0.0
2015-Apr-25 00:33N 53°10' E 005°25'0 0.0
2015-Apr-24 23:33N 53°10' E 005°25'0 0.0
2015-Apr-24 22:33N 53°10' E 005°25'0 0.0
2015-Apr-24 21:33N 53°10' E 005°25'0 0.0
2015-Apr-24 20:33N 53°10' E 005°25'0 0.0
2015-Apr-24 19:33N 53°10' E 005°25'0 0.0
2015-Apr-24 18:33N 53°10' E 005°25'0 0.0
2015-Apr-24 17:33N 53°10' E 005°25'0 0.0
2015-Apr-24 16:33N 53°10' E 005°25'0 0.0
2015-Apr-24 15:33N 53°10' E 005°25'0 0.0
2015-Apr-24 14:33N 53°10' E 005°25'0 0.0
2015-Apr-24 13:33N 53°10' E 005°25'0 0.0
2015-Apr-24 12:33N 53°10' E 005°25'0 0.0
2015-Apr-24 11:33N 53°10' E 005°25'0 0.0
2015-Apr-24 10:33N 53°10' E 005°25'0 0.0
2015-Apr-24 09:33N 53°10' E 005°25'0 0.0
2015-Apr-24 08:33N 53°10' E 005°25'0 0.0
2015-Apr-24 07:33N 53°10' E 005°25'0 0.0
2015-Apr-24 06:33N 53°10' E 005°25'0 0.0
2015-Apr-24 05:33N 53°10' E 005°25'0 0.0
2015-Apr-24 04:33N 53°10' E 005°25'0 0.0
2015-Apr-24 03:33N 53°10' E 005°25'0 0.0
2015-Apr-24 02:33N 53°10' E 005°25'0 0.0
2015-Apr-24 01:33N 53°10' E 005°25'0 0.0
2015-Apr-24 00:33N 53°10' E 005°25'0 0.0
2015-Apr-23 23:33N 53°10' E 005°25'0 0.0
2015-Apr-23 22:33N 53°10' E 005°25'0 0.0
2015-Apr-23 21:33N 53°10' E 005°25'0 0.0
2015-Apr-23 20:33N 53°10' E 005°25'0 0.0
2015-Apr-23 19:33N 53°10' E 005°25'0 0.0
2015-Apr-23 18:33N 53°10' E 005°25'0 0.0
2015-Apr-23 17:33N 53°10' E 005°25'0 0.0
2015-Apr-23 16:33N 53°10' E 005°25'0 0.0
2015-Apr-23 15:33N 53°10' E 005°25'0 0.0
2015-Apr-23 14:33N 53°10' E 005°25'0 0.0
2015-Apr-23 13:33N 53°10' E 005°25'0 0.0
2015-Apr-23 12:33N 53°10' E 005°25'0 0.0
2015-Apr-23 11:33N 53°10' E 005°25'0 0.0
2015-Apr-23 10:33N 53°10' E 005°25'0 0.0
2015-Apr-23 09:33N 53°10' E 005°25'0 0.0
2015-Apr-23 08:33N 53°10' E 005°25'0 0.0
2015-Apr-23 07:33N 53°10' E 005°25'0 0.0
2015-Apr-23 06:33N 53°10' E 005°25'0 0.0
2015-Apr-23 05:33N 53°10' E 005°25'0 0.0
2015-Apr-23 04:33N 53°10' E 005°25'0 0.0
2015-Apr-23 03:33N 53°10' E 005°25'0 0.0
2015-Apr-23 02:33N 53°10' E 005°25'0 0.0
2015-Apr-23 01:33N 53°10' E 005°25'0 0.0
2015-Apr-23 00:33N 53°10' E 005°25'0 0.0
2015-Apr-22 23:33N 53°10' E 005°25'0 0.0
2015-Apr-22 22:33N 53°10' E 005°25'0 0.0
2015-Apr-22 21:33N 53°10' E 005°25'0 0.0
2015-Apr-22 20:33N 53°10' E 005°25'0 0.0
2015-Apr-22 19:33N 53°10' E 005°25'0 0.0
2015-Apr-22 18:33N 53°10' E 005°25'0 0.0
2015-Apr-22 17:33N 53°10' E 005°25'0 0.0
2015-Apr-22 16:33N 53°10' E 005°25'0 0.0
2015-Apr-22 15:33N 53°10' E 005°25'0 0.0
2015-Apr-22 14:33N 53°10' E 005°25'0 0.0
2015-Apr-22 13:33N 53°10' E 005°25'0 0.0
2015-Apr-22 12:33N 53°10' E 005°25'0 0.0
2015-Apr-22 11:33N 53°10' E 005°25'0 0.0
2015-Apr-22 10:33N 53°10' E 005°25'0 0.0
2015-Apr-22 09:33N 53°10' E 005°25'0 0.0
2015-Apr-22 08:33N 53°10' E 005°25'0 0.0
2015-Apr-22 07:33N 53°10' E 005°25'0 0.0
2015-Apr-22 06:33N 53°10' E 005°25'0 0.0
2015-Apr-22 05:33N 53°10' E 005°25'0 0.0
2015-Apr-22 04:33N 53°10' E 005°25'0 0.0
2015-Apr-22 03:33N 53°10' E 005°25'0 0.0
2015-Apr-22 02:32N 53°10' E 005°25'0 0.0
2015-Apr-22 01:32N 53°10' E 005°25'0 0.0
2015-Apr-22 00:33N 53°10' E 005°25'0 0.0
2015-Apr-21 23:33N 53°10' E 005°25'0 0.0
2015-Apr-21 22:33N 53°10' E 005°25'0 0.0
2015-Apr-21 21:33N 53°10' E 005°25'0 0.0
2015-Apr-21 20:33N 53°10' E 005°25'0 0.0
2015-Apr-21 19:33N 53°10' E 005°25'0 0.0
2015-Apr-21 18:33N 53°10' E 005°25'0 0.0
2015-Apr-21 17:33N 53°10' E 005°25'0 0.0
2015-Apr-21 16:33N 53°10' E 005°25'0 0.0
2015-Apr-21 15:33N 53°10' E 005°25'0 0.0
2015-Apr-21 14:33N 53°10' E 005°25'0 0.0
2015-Apr-21 13:33N 53°10' E 005°25'0 0.0
2015-Apr-21 12:33N 53°10' E 005°25'0 0.0
2015-Apr-21 11:33N 53°10' E 005°25'0 0.0
2015-Apr-21 10:33N 53°10' E 005°25'0 0.0
2015-Apr-21 09:33N 53°10' E 005°25'0 0.0
2015-Apr-21 08:33N 53°10' E 005°25'0 0.0
2015-Apr-21 07:33N 53°10' E 005°25'0 0.0
2015-Apr-21 06:33N 53°10' E 005°25'0 0.0
2015-Apr-21 05:33N 53°10' E 005°25'0 0.0
2015-Apr-21 04:33N 53°10' E 005°25'0 0.0
2015-Apr-21 03:33N 53°10' E 005°25'0 0.0
2015-Apr-21 02:33N 53°10' E 005°25'0 0.0
2015-Apr-21 01:33N 53°10' E 005°25'0 0.0
2015-Apr-21 00:33N 53°10' E 005°25'0 0.0
2015-Apr-20 23:33N 53°10' E 005°25'0 0.0
2015-Apr-20 22:33N 53°10' E 005°25'0 0.0
2015-Apr-20 21:33N 53°10' E 005°25'0 0.0
2015-Apr-20 20:33N 53°10' E 005°25'0 0.0
2015-Apr-20 19:33N 53°10' E 005°25'0 0.0
2015-Apr-20 18:33N 53°10' E 005°25'0 0.0
2015-Apr-20 17:33N 53°10' E 005°25'0 0.0
2015-Apr-20 16:33N 53°10' E 005°25'0 0.0
2015-Apr-20 15:33N 53°10' E 005°25'0 0.0
2015-Apr-20 14:33N 53°10' E 005°25'0 0.0
2015-Apr-20 13:33N 53°10' E 005°25'0 0.0
2015-Apr-20 12:33N 53°10' E 005°25'0 0.0
2015-Apr-20 11:33N 53°10' E 005°25'0 0.0
2015-Apr-20 10:33N 53°10' E 005°25'0 0.0
2015-Apr-20 09:33N 53°10' E 005°25'0 0.0
2015-Apr-20 08:33N 53°10' E 005°25'0 0.0
2015-Apr-20 07:33N 53°10' E 005°25'0 0.0
2015-Apr-20 06:33N 53°10' E 005°25'0 0.0
2015-Apr-20 05:33N 53°10' E 005°25'0 0.0
2015-Apr-20 04:33N 53°10' E 005°25'0 0.0
2015-Apr-20 03:33N 53°10' E 005°25'0 0.0
2015-Apr-20 02:33N 53°10' E 005°25'0 0.0
2015-Apr-20 01:33N 53°10' E 005°25'0 0.0
2015-Apr-20 00:33N 53°10' E 005°25'0 0.0
2015-Apr-19 23:33N 53°10' E 005°25'0 0.0
2015-Apr-19 22:33N 53°10' E 005°25'0 0.0
2015-Apr-19 21:33N 53°10' E 005°25'0 0.0
2015-Apr-19 20:33N 53°10' E 005°25'0 0.0
2015-Apr-19 19:33N 53°10' E 005°25'0 0.0
2015-Apr-19 18:33N 53°10' E 005°25'0 0.0
2015-Apr-19 17:33N 53°10' E 005°25'0 0.0
2015-Apr-19 16:33N 53°10' E 005°25'0 0.0
2015-Apr-19 15:33N 53°10' E 005°25'0 0.0
2015-Apr-19 14:33N 53°10' E 005°25'0 0.0
2015-Apr-19 13:33N 53°10' E 005°25'0 0.0
2015-Apr-19 12:33N 53°10' E 005°25'0 0.0
2015-Apr-19 11:33N 53°10' E 005°25'0 0.0
2015-Apr-19 10:33N 53°10' E 005°25'0 0.0
2015-Apr-19 09:33N 53°10' E 005°25'0 0.0
2015-Apr-19 08:33N 53°10' E 005°25'0 0.0
2015-Apr-19 07:33N 53°10' E 005°25'0 0.0
2015-Apr-19 06:33N 53°10' E 005°25'0 0.0
2015-Apr-19 05:33N 53°10' E 005°25'0 0.0
2015-Apr-19 04:33N 53°10' E 005°25'0 0.0
2015-Apr-19 03:33N 53°10' E 005°25'0 0.0
2015-Apr-19 02:33N 53°10' E 005°25'0 0.0
2015-Apr-19 01:33N 53°10' E 005°25'0 0.0
2015-Apr-19 00:33N 53°10' E 005°25'0 0.0
2015-Apr-18 23:33N 53°10' E 005°25'0 0.0
2015-Apr-18 22:33N 53°10' E 005°25'0 0.0
2015-Apr-18 21:33N 53°10' E 005°25'0 0.0
2015-Apr-18 20:33N 53°10' E 005°25'0 0.0
2015-Apr-18 19:33N 53°10' E 005°25'0 0.0
2015-Apr-18 18:33N 53°10' E 005°25'  

Dump ship's entire track history